Time;durP1;ratioP1;P1;durP2;ratioP2;P2;SDS_P1;SDS_P2;PMS_P1;PMS_P2;Temp;Humidity;BMP_temperature;BMP_pressure;BME280_temperature;BME280_humidity;BME280_pressure;Samples;Min_cycle;Max_cycle;Signal;HPM_P1;HPM_P2
2022/11/08 00:16:00;;;;;;;7.93;2.30;;;10.20;99.90;;;;;;10476562;28;20219;-77
2022/11/08 00:21:02;;;;;;;6.40;2.73;;;10.20;99.90;;;;;;10462232;28;20314;-78
2022/11/08 00:26:02;;;;;;;9.17;3.13;;;10.10;99.90;;;;;;10487329;28;20230;-78
2022/11/08 00:31:06;;;;;;;7.67;3.20;;;10.00;99.90;;;;;;10468235;28;20227;-80
2022/11/08 00:36:07;;;;;;;8.90;4.00;;;10.00;99.90;;;;;;10476731;28;20218;-81
2022/11/08 00:41:08;;;;;;;13.57;7.20;;;10.00;99.90;;;;;;10470011;28;20646;-81
2022/11/08 00:46:09;;;;;;;10.23;4.37;;;10.00;99.90;;;;;;10475128;28;20230;-81
2022/11/08 00:51:11;;;;;;;9.43;4.73;;;10.10;99.90;;;;;;10466609;28;20286;-80
2022/11/08 00:56:12;;;;;;;13.73;6.63;;;10.00;99.90;;;;;;10475613;28;20241;-79
2022/11/08 01:01:15;;;;;;;12.07;6.60;;;10.00;99.90;;;;;;10463175;28;20737;-80
2022/11/08 01:06:17;;;;;;;13.17;7.90;;;9.80;99.90;;;;;;10473768;28;20857;-79
2022/11/08 01:11:20;;;;;;;15.13;8.07;;;9.70;99.90;;;;;;10471327;28;20267;-78
2022/11/08 01:16:23;;;;;;;11.83;7.00;;;9.50;99.90;;;;;;10471901;28;20226;-79
2022/11/08 01:21:24;;;;;;;13.00;6.47;;;9.40;99.90;;;;;;10459713;28;20569;-79
2022/11/08 01:26:28;;;;;;;6.70;4.40;;;9.30;99.90;;;;;;10470496;28;20899;-80
2022/11/08 01:31:31;;;;;;;6.73;4.47;;;9.30;99.90;;;;;;10476976;28;20329;-79
2022/11/08 01:36:31;;;;;;;9.20;4.97;;;9.20;99.90;;;;;;10471821;28;20284;-80
2022/11/08 01:41:32;;;;;;;8.40;4.60;;;9.10;99.90;;;;;;10468589;28;20288;-80
2022/11/08 01:46:35;;;;;;;8.30;5.23;;;9.00;99.90;;;;;;10478280;28;20359;-79
2022/11/08 01:51:43;;;;;;;8.33;5.60;;;9.00;99.90;;;;;;10470611;28;20218;-80
2022/11/08 01:56:44;;;;;;;7.47;5.03;;;8.90;99.90;;;;;;10465204;28;20226;-79
2022/11/08 02:01:45;;;;;;;7.53;4.70;;;8.80;99.90;;;;;;10466253;28;20218;-79
2022/11/08 02:06:45;;;;;;;7.53;5.17;;;8.70;99.90;;;;;;10467209;28;20220;-78
2022/11/08 02:11:47;;;;;;;9.40;5.33;;;8.70;99.90;;;;;;10456737;28;20253;-78
2022/11/08 02:16:48;;;;;;;6.50;5.10;;;8.60;99.90;;;;;;10467293;28;20213;-78
2022/11/08 02:21:55;;;;;;;6.40;4.90;;;8.60;99.90;;;;;;10472901;28;20581;-77
2022/11/08 02:26:58;;;;;;;7.43;4.37;;;8.50;99.90;;;;;;10468214;28;20251;-76
2022/11/08 02:32:00;;;;;;;6.63;4.43;;;8.40;99.90;;;;;;10461899;28;20214;-77
2022/11/08 02:37:02;;;;;;;6.37;3.90;;;8.40;99.90;;;;;;10458119;28;20218;-76
2022/11/08 02:42:03;;;;;;;6.57;3.97;;;8.30;99.90;;;;;;10460517;28;20232;-73
2022/11/08 02:47:04;;;;;;;8.57;3.90;;;8.30;99.90;;;;;;10472503;28;20214;-73
2022/11/08 02:52:05;;;;;;;6.00;3.90;;;8.20;99.90;;;;;;10472506;28;20639;-73
2022/11/08 02:57:05;;;;;;;6.13;3.90;;;8.20;99.90;;;;;;10461035;28;20739;-77
2022/11/08 03:02:07;;;;;;;6.53;3.60;;;8.20;99.90;;;;;;10471597;28;20230;-78
2022/11/08 03:07:08;;;;;;;7.33;3.80;;;8.10;99.90;;;;;;10474217;28;20217;-76
2022/11/08 03:12:09;;;;;;;6.17;3.47;;;8.00;99.90;;;;;;10461243;28;20226;-74
2022/11/08 03:17:09;;;;;;;6.57;3.93;;;8.00;99.90;;;;;;10464925;28;20276;-74
2022/11/08 03:22:14;;;;;;;6.33;3.60;;;7.90;99.90;;;;;;10471604;28;20711;-75
2022/11/08 03:27:15;;;;;;;7.50;3.90;;;7.90;99.90;;;;;;10467516;28;20321;-76
2022/11/08 03:32:16;;;;;;;5.80;3.70;;;7.80;99.90;;;;;;10472796;28;20225;-79
2022/11/08 03:37:16;;;;;;;7.90;4.10;;;7.70;99.90;;;;;;10472510;28;20345;-77
2022/11/08 03:42:17;;;;;;;6.67;3.90;;;7.70;99.90;;;;;;10478876;28;20228;-77
2022/11/08 03:47:17;;;;;;;6.50;4.20;;;7.70;99.90;;;;;;10470505;28;20588;-77
2022/11/08 03:52:18;;;;;;;5.37;3.73;;;7.60;99.90;;;;;;10462822;28;20271;-76
2022/11/08 03:57:18;;;;;;;5.83;3.80;;;7.60;99.90;;;;;;10466991;28;20315;-76
2022/11/08 04:02:19;;;;;;;4.63;3.40;;;7.50;99.90;;;;;;10474618;28;20291;-77
2022/11/08 04:07:19;;;;;;;3.87;2.70;;;7.50;99.90;;;;;;10472774;28;20228;-77
2022/11/08 04:23:00;;;;;;;3.90;2.70;;;7.40;99.90;;;;;;10468751;28;20227;-78
2022/11/08 04:28:02;;;;;;;5.03;3.07;;;7.40;99.90;;;;;;10464588;28;20223;-76
2022/11/08 04:33:04;;;;;;;5.20;3.23;;;7.40;99.90;;;;;;10462271;28;20224;-77
2022/11/08 04:38:04;;;;;;;7.57;3.67;;;7.30;99.90;;;;;;10470827;28;20293;-75
2022/11/08 04:43:05;;;;;;;4.57;3.07;;;7.30;99.90;;;;;;10468438;28;20263;-75
2022/11/08 04:48:06;;;;;;;4.97;3.07;;;7.30;99.90;;;;;;10457326;28;20391;-73
2022/11/08 04:53:07;;;;;;;5.93;3.50;;;7.20;99.90;;;;;;10463225;28;20220;-77
2022/11/08 04:58:07;;;;;;;6.40;3.47;;;7.20;99.90;;;;;;10470631;28;20219;-77
2022/11/08 05:03:08;;;;;;;6.60;3.60;;;7.10;99.90;;;;;;10468144;28;20223;-77
2022/11/08 05:08:08;;;;;;;8.57;4.30;;;7.10;99.90;;;;;;10471449;28;20227;-75
2022/11/08 05:13:09;;;;;;;6.50;3.60;;;7.10;99.90;;;;;;10468922;28;20276;-73
2022/11/08 05:18:09;;;;;;;6.10;3.70;;;7.10;99.90;;;;;;10463206;28;20885;-72
2022/11/08 05:23:22;;;;;;;9.47;5.10;;;7.10;99.90;;;;;;10463071;28;20801;-73
2022/11/08 05:28:23;;;;;;;8.67;5.40;;;7.00;99.90;;;;;;10463984;28;20216;-73
2022/11/08 05:33:24;;;;;;;12.53;6.80;;;6.90;99.90;;;;;;10471658;28;20217;-73
2022/11/08 05:38:25;;;;;;;8.10;6.00;;;6.90;99.90;;;;;;10464913;28;20298;-72
2022/11/08 05:43:25;;;;;;;9.77;6.03;;;6.90;99.90;;;;;;10463941;28;20220;-72
2022/11/08 05:48:26;;;;;;;8.73;5.07;;;6.80;99.90;;;;;;10467194;28;20696;-75
2022/11/08 05:53:27;;;;;;;7.73;4.90;;;6.80;99.90;;;;;;10476922;28;20352;-75
2022/11/08 05:58:29;;;;;;;7.87;4.93;;;6.70;99.90;;;;;;10468413;28;20230;-75
2022/11/08 06:03:30;;;;;;;7.80;5.30;;;6.70;99.90;;;;;;10465631;28;20244;-75
2022/11/08 06:08:30;;;;;;;6.87;5.20;;;6.60;99.90;;;;;;10475042;28;20280;-75
2022/11/08 06:13:31;;;;;;;15.07;6.47;;;6.60;99.90;;;;;;10459395;28;20217;-75
2022/11/08 06:18:36;;;;;;;10.70;5.43;;;6.60;99.90;;;;;;10468713;28;20342;-74
2022/11/08 06:23:37;;;;;;;9.60;5.70;;;6.70;99.90;;;;;;10474224;28;20223;-75
2022/11/08 06:28:37;;;;;;;10.00;5.40;;;6.70;99.90;;;;;;10476879;28;20257;-75
2022/11/08 06:33:38;;;;;;;10.27;5.67;;;6.90;99.90;;;;;;10467654;28;20212;-75
2022/11/08 06:38:38;;;;;;;9.33;5.40;;;7.00;99.90;;;;;;10469150;28;20216;-77
2022/11/08 06:43:39;;;;;;;8.23;5.57;;;7.20;99.90;;;;;;10474403;28;20226;-75
2022/11/08 06:48:40;;;;;;;10.13;5.70;;;7.50;99.90;;;;;;10462017;28;20626;-76
2022/11/08 06:53:40;;;;;;;8.87;5.83;;;8.00;99.90;;;;;;10474511;28;20221;-75
2022/11/08 06:58:41;;;;;;;7.60;5.07;;;8.40;99.90;;;;;;10469812;28;20230;-74
2022/11/08 07:03:42;;;;;;;5.70;4.23;;;8.50;99.90;;;;;;10468827;28;20620;-75
2022/11/08 07:08:42;;;;;;;8.63;5.07;;;8.50;99.90;;;;;;10465416;28;20277;-75
2022/11/08 07:13:43;;;;;;;11.60;5.43;;;8.70;99.90;;;;;;10471234;28;20743;-74
2022/11/08 07:18:43;;;;;;;12.27;5.20;;;8.80;99.90;;;;;;10469503;28;20224;-74
2022/11/08 07:23:44;;;;;;;9.80;5.20;;;9.00;99.90;;;;;;10469371;28;20227;-75
2022/11/08 07:28:45;;;;;;;7.10;4.67;;;9.10;99.90;;;;;;10464086;28;20248;-75
2022/11/08 07:33:45;;;;;;;7.90;4.47;;;9.10;99.90;;;;;;10476501;28;20297;-75
2022/11/08 07:38:50;;;;;;;10.77;5.00;;;9.20;99.90;;;;;;10470058;28;20238;-75
2022/11/08 07:43:50;;;;;;;7.73;4.90;;;9.40;99.90;;;;;;10467776;28;20227;-75
2022/11/08 07:48:51;;;;;;;7.17;5.07;;;9.70;99.90;;;;;;10473088;28;20221;-75
2022/11/08 07:53:52;;;;;;;11.37;4.93;;;9.90;99.90;;;;;;10468357;28;20227;-75
2022/11/08 07:58:52;;;;;;;7.50;4.37;;;10.00;99.90;;;;;;10469180;28;20234;-76
2022/11/08 08:03:53;;;;;;;8.13;4.20;;;10.10;99.90;;;;;;10467825;28;20235;-76
2022/11/08 08:08:53;;;;;;;12.17;6.10;;;10.40;99.90;;;;;;10464779;28;20285;-76
2022/11/08 08:13:55;;;;;;;9.90;5.83;;;10.40;99.90;;;;;;10469050;28;20230;-75
2022/11/08 08:18:56;;;;;;;18.27;11.30;;;10.50;99.90;;;;;;10468050;28;20613;-76
2022/11/08 08:23:56;;;;;;;14.67;9.33;;;10.60;99.90;;;;;;10475470;28;20234;-75
2022/11/08 08:28:57;;;;;;;9.63;5.83;;;10.80;99.90;;;;;;10466669;28;20247;-76
2022/11/08 08:33:59;;;;;;;10.70;5.27;;;11.00;99.90;;;;;;10464309;28;20239;-76
2022/11/08 08:39:02;;;;;;;9.53;5.30;;;11.60;99.90;;;;;;10467827;28;20222;-75
2022/11/08 08:44:03;;;;;;;7.90;4.60;;;12.10;99.90;;;;;;10471165;28;20226;-75
2022/11/08 08:49:07;;;;;;;10.10;4.43;;;12.40;99.90;;;;;;10465951;28;20223;-75
2022/11/08 08:54:08;;;;;;;6.40;4.23;;;12.50;99.90;;;;;;10461524;28;20246;-75
2022/11/08 08:59:13;;;;;;;7.37;3.80;;;12.70;99.90;;;;;;10468851;28;20215;-76
2022/11/08 09:04:14;;;;;;;6.60;3.10;;;12.70;99.90;;;;;;10478231;28;20311;-74
2022/11/08 09:09:14;;;;;;;4.37;2.80;;;12.70;99.90;;;;;;10490984;28;20225;-75
2022/11/08 09:14:15;;;;;;;4.33;2.47;;;12.60;99.90;;;;;;10470899;28;20705;-76
2022/11/08 09:19:15;;;;;;;4.73;2.50;;;12.70;99.90;;;;;;10477683;28;20218;-76
2022/11/08 09:24:16;;;;;;;6.10;3.30;;;13.00;99.90;;;;;;10478703;28;20286;-75
2022/11/08 09:29:16;;;;;;;5.10;2.50;;;14.40;99.90;;;;;;10480126;28;20565;-77
2022/11/08 09:34:18;;;;;;;6.30;3.30;;;19.00;99.90;;;;;;10470598;28;20211;-75
2022/11/08 09:39:19;;;;;;;5.47;2.80;;;22.50;99.90;;;;;;10477017;28;20713;-75
2022/11/08 09:44:47;;;;;;;3.40;2.60;;;25.70;79.30;;;;;;10469239;28;20324;-76
2022/11/08 09:50:19;;;;;;;9.20;2.80;;;27.10;63.40;;;;;;10473350;28;20224;-74
2022/11/08 09:55:34;;;;;;;5.83;2.77;;;28.00;55.90;;;;;;10478215;28;20216;-75
2022/11/08 10:00:38;;;;;;;3.43;2.53;;;27.30;55.30;;;;;;10446427;28;20277;-76
2022/11/08 10:05:43;;;;;;;4.73;2.40;;;28.50;52.80;;;;;;10475358;28;20318;-76
2022/11/08 10:11:04;;;;;;;3.40;2.37;;;26.90;53.80;;;;;;10472467;28;20251;-74
2022/11/08 10:16:26;;;;;;;5.63;2.50;;;24.80;57.40;;;;;;10474788;28;20230;-76
2022/11/08 10:21:59;;;;;;;4.37;2.10;;;25.10;57.40;;;;;;10461797;28;20238;-75
2022/11/08 10:27:01;;;;;;;4.63;2.07;;;26.50;54.90;;;;;;10472242;28;20231;-75
2022/11/08 10:32:22;;;;;;;4.73;2.80;;;27.60;52.20;;;;;;10471479;27;20212;-75
2022/11/08 10:37:24;;;;;;;3.20;1.83;;;29.30;49.00;;;;;;10466358;28;20221;-75
2022/11/08 10:42:38;;;;;;;2.20;2.00;;;30.30;46.70;;;;;;10459706;28;20278;-76
2022/11/08 10:47:39;;;;;;;4.83;2.20;;;31.30;44.20;;;;;;10468103;28;20216;-75
2022/11/08 10:52:46;;;;;;;4.57;1.93;;;30.70;43.00;;;;;;10472660;28;20225;-75
2022/11/08 10:57:46;;;;;;;3.83;1.90;;;30.30;43.30;;;;;;10470396;28;20220;-77
2022/11/08 11:02:56;;;;;;;2.97;2.00;;;30.40;43.60;;;;;;10470459;28;20228;-75
2022/11/08 11:08:00;;;;;;;2.93;2.20;;;29.20;44.50;;;;;;10470537;28;20305;-76
2022/11/08 11:13:25;;;;;;;3.90;1.87;;;24.90;52.20;;;;;;10471861;28;20634;-75
2022/11/08 11:18:43;;;;;;;2.37;1.70;;;21.30;60.10;;;;;;10459705;28;20312;-74
2022/11/08 11:23:50;;;;;;;3.93;2.10;;;19.20;70.10;;;;;;10472057;28;20290;-74
2022/11/08 11:29:05;;;;;;;4.63;1.80;;;18.30;74.80;;;;;;10467030;28;20217;-75
2022/11/08 11:34:18;;;;;;;2.70;1.37;;;17.90;76.00;;;;;;10476081;28;20219;-75
2022/11/08 11:39:44;;;;;;;2.60;1.73;;;17.80;77.60;;;;;;10466017;28;20217;-75
2022/11/08 11:45:20;;;;;;;4.13;1.70;;;17.60;79.10;;;;;;10457772;28;20227;-76
2022/11/08 11:50:38;;;;;;;5.30;1.60;;;17.60;80.20;;;;;;10465638;28;20240;-76
2022/11/08 11:56:06;;;;;;;2.90;1.70;;;17.50;80.70;;;;;;10460990;28;20336;-76
2022/11/08 12:01:31;;;;;;;4.10;1.70;;;17.60;81.60;;;;;;10472447;28;20298;-76
2022/11/08 12:06:42;;;;;;;3.47;1.63;;;17.60;81.10;;;;;;10450740;28;20224;-76
2022/11/08 12:11:46;;;;;;;3.03;1.50;;;17.50;82.30;;;;;;10473186;28;20222;-75
2022/11/08 12:17:12;;;;;;;3.87;1.73;;;17.40;82.50;;;;;;10474514;28;20215;-75
2022/11/08 12:22:19;;;;;;;3.53;1.83;;;17.30;83.40;;;;;;10472653;28;20230;-76
2022/11/08 12:28:00;;;;;;;1.60;1.30;;;17.20;85.30;;;;;;10466156;28;20212;-76
2022/11/08 12:33:22;;;;;;;3.10;1.80;;;17.40;86.20;;;;;;10466942;28;20208;-76
2022/11/08 12:38:47;;;;;;;2.43;1.53;;;17.50;85.20;;;;;;10473001;28;20230;-75
2022/11/08 12:44:08;;;;;;;5.33;1.90;;;17.40;85.50;;;;;;10451149;28;20219;-75
2022/11/08 12:49:26;;;;;;;2.87;1.73;;;17.20;85.00;;;;;;10466644;28;20204;-75
2022/11/08 12:54:35;;;;;;;2.90;1.70;;;17.20;86.10;;;;;;10458439;28;20228;-76
2022/11/08 12:59:44;;;;;;;3.50;1.67;;;17.10;85.80;;;;;;10474467;28;20587;-77
2022/11/08 13:05:10;;;;;;;1.50;1.40;;;17.20;86.10;;;;;;10465078;28;20437;-77
2022/11/08 13:10:31;;;;;;;2.80;1.90;;;17.30;85.80;;;;;;10478722;28;20752;-76
2022/11/08 13:15:32;;;;;;;2.87;1.63;;;17.20;85.50;;;;;;10458560;28;20233;-75
2022/11/08 13:20:45;;;;;;;3.10;1.70;;;17.20;86.10;;;;;;10470346;28;20230;-76
2022/11/08 13:25:46;;;;;;;5.33;2.20;;;16.90;87.30;;;;;;10467179;28;20227;-75
2022/11/08 13:30:59;;;;;;;2.90;1.80;;;16.60;88.40;;;;;;10471242;28;20219;-75
2022/11/08 13:36:29;;;;;;;3.97;1.83;;;16.40;90.00;;;;;;10470859;28;20274;-76
2022/11/08 13:41:30;;;;;;;3.87;1.77;;;16.20;89.80;;;;;;10471962;28;20220;-76
2022/11/08 13:46:30;;;;;;;2.73;1.57;;;16.20;90.00;;;;;;10472383;28;20231;-77
2022/11/08 13:51:34;;;;;;;3.83;1.90;;;16.30;90.40;;;;;;10477694;28;20214;-76
2022/11/08 13:56:53;;;;;;;3.27;1.40;;;16.40;89.90;;;;;;10471505;28;20224;-76
2022/11/08 14:01:55;;;;;;;2.10;1.50;;;16.50;90.00;;;;;;10475342;28;20223;-75
2022/11/08 14:07:11;;;;;;;4.60;1.80;;;16.40;90.30;;;;;;10474741;28;20859;-76
2022/11/08 14:12:30;;;;;;;2.50;1.40;;;16.20;90.60;;;;;;10477971;28;20245;-76
2022/11/08 14:18:16;;;;;;;3.43;1.50;;;16.10;91.30;;;;;;10463814;28;20306;-77
2022/11/08 14:23:20;;;;;;;2.93;1.80;;;16.00;91.60;;;;;;10464114;28;20227;-76
2022/11/08 14:28:29;;;;;;;2.90;1.50;;;15.90;92.10;;;;;;10475765;28;20249;-76
2022/11/08 14:33:32;;;;;;;2.00;1.30;;;15.80;92.60;;;;;;10468665;28;20606;-76
2022/11/08 14:38:43;;;;;;;2.57;1.53;;;15.70;93.30;;;;;;10468169;28;20329;-76
2022/11/08 14:43:46;;;;;;;4.43;1.70;;;15.60;93.90;;;;;;10473577;28;20272;-77
2022/11/08 14:48:49;;;;;;;3.37;1.70;;;15.50;94.40;;;;;;10476230;28;20212;-76
2022/11/08 14:53:52;;;;;;;3.87;1.70;;;15.30;95.00;;;;;;10468149;28;20270;-76
2022/11/08 14:58:54;;;;;;;4.37;1.80;;;15.30;95.30;;;;;;10461892;28;20212;-75
2022/11/08 15:04:05;;;;;;;3.87;1.60;;;15.10;96.00;;;;;;10467030;28;20714;-77
2022/11/08 15:09:07;;;;;;;2.17;1.90;;;15.00;96.40;;;;;;10473718;28;20211;-77
2022/11/08 15:14:15;;;;;;;3.37;2.00;;;14.90;97.00;;;;;;10452235;28;20230;-78
2022/11/08 15:19:35;;;;;;;1.90;1.53;;;14.80;97.10;;;;;;10460054;28;20220;-76
2022/11/08 15:24:38;;;;;;;5.03;1.87;;;14.60;97.50;;;;;;10470635;28;20237;-78
2022/11/08 15:30:00;;;;;;;3.83;2.20;;;14.50;97.70;;;;;;10471679;28;20759;-77
2022/11/08 15:35:01;;;;;;;6.03;2.60;;;14.40;97.60;;;;;;10470237;28;20226;-76
2022/11/08 15:40:26;;;;;;;5.93;2.10;;;14.40;97.80;;;;;;10468472;28;20219;-77
2022/11/08 15:45:31;;;;;;;4.80;1.77;;;14.40;97.80;;;;;;10457152;28;20265;-77
2022/11/08 15:50:32;;;;;;;5.10;2.10;;;14.30;97.90;;;;;;10473651;28;20207;-77
2022/11/08 15:55:45;;;;;;;3.07;2.00;;;14.30;97.80;;;;;;10466139;28;20336;-77
2022/11/08 16:00:47;;;;;;;3.80;2.30;;;14.20;97.90;;;;;;10470231;28;20219;-77
2022/11/08 16:05:50;;;;;;;3.67;1.87;;;14.10;98.10;;;;;;10462985;28;20219;-77
2022/11/08 16:10:53;;;;;;;3.13;2.27;;;14.10;98.00;;;;;;10468897;28;20566;-76
2022/11/08 16:15:54;;;;;;;3.77;1.60;;;14.10;98.50;;;;;;10469248;28;20317;-76
2022/11/08 16:20:55;;;;;;;1.93;1.27;;;14.10;98.00;;;;;;10472174;28;20251;-77
2022/11/08 16:25:56;;;;;;;3.23;1.70;;;14.30;97.70;;;;;;10465767;28;20324;-76
2022/11/08 16:31:04;;;;;;;2.63;1.30;;;14.30;97.70;;;;;;10467368;28;20221;-78
2022/11/08 16:36:19;;;;;;;2.27;1.20;;;14.40;97.10;;;;;;10463790;28;20558;-77
2022/11/08 16:41:21;;;;;;;1.90;1.57;;;14.60;96.90;;;;;;10472155;28;20214;-76
2022/11/08 16:46:22;;;;;;;3.77;1.40;;;14.60;96.80;;;;;;10457522;28;20227;-76
2022/11/08 16:51:26;;;;;;;1.60;1.50;;;14.70;96.80;;;;;;10463742;28;20216;-76
2022/11/08 16:56:26;;;;;;;2.93;1.33;;;14.80;96.40;;;;;;10450073;28;20212;-76
2022/11/08 17:01:33;;;;;;;3.90;2.10;;;14.90;96.10;;;;;;10456698;28;20302;-75
2022/11/08 17:06:33;;;;;;;2.07;1.40;;;15.00;95.90;;;;;;10470862;28;20235;-76
2022/11/08 17:11:34;;;;;;;3.80;1.60;;;15.00;95.90;;;;;;10470045;28;20238;-77
2022/11/08 17:16:34;;;;;;;5.27;1.87;;;15.10;95.80;;;;;;10464042;28;20322;-77
2022/11/08 17:21:35;;;;;;;2.63;1.57;;;15.20;95.90;;;;;;10465906;28;20284;-76
2022/11/08 17:26:36;;;;;;;3.43;2.07;;;15.10;96.00;;;;;;10477855;28;20264;-77
2022/11/08 17:31:37;;;;;;;3.77;2.30;;;15.10;96.00;;;;;;10472812;28;20676;-77
2022/11/08 17:36:38;;;;;;;3.20;1.63;;;15.00;96.20;;;;;;10478327;28;20686;-75
2022/11/08 17:41:39;;;;;;;5.13;2.63;;;14.90;96.50;;;;;;10480506;28;20224;-76
2022/11/08 17:46:39;;;;;;;4.37;1.77;;;14.90;96.70;;;;;;10479109;28;20246;-77
2022/11/08 17:51:40;;;;;;;6.20;1.90;;;15.00;96.50;;;;;;10478348;28;20211;-77
2022/11/08 17:56:41;;;;;;;3.70;1.80;;;15.10;96.30;;;;;;10469958;28;20942;-77
2022/11/08 18:01:41;;;;;;;5.93;1.87;;;15.20;96.30;;;;;;10471914;28;20695;-77
2022/11/08 18:06:42;;;;;;;3.67;1.70;;;15.10;96.30;;;;;;10476944;28;20672;-77
2022/11/08 18:11:46;;;;;;;3.23;1.73;;;15.10;96.70;;;;;;10468160;28;20228;-77
2022/11/08 18:16:47;;;;;;;2.13;1.47;;;15.00;96.70;;;;;;10472391;28;20263;-77
2022/11/08 18:21:48;;;;;;;2.30;1.80;;;14.90;97.00;;;;;;10450245;28;20258;-76
2022/11/08 18:26:49;;;;;;;4.50;2.07;;;14.90;97.10;;;;;;10468585;28;20562;-76
2022/11/08 18:31:49;;;;;;;2.17;1.57;;;14.80;97.20;;;;;;10480699;28;20238;-76
2022/11/08 18:36:50;;;;;;;3.47;1.63;;;14.70;97.60;;;;;;10471741;28;20223;-77
2022/11/08 18:41:51;;;;;;;5.43;1.80;;;14.60;98.10;;;;;;10472269;28;20326;-79
2022/11/08 18:46:51;;;;;;;3.70;1.80;;;14.50;98.60;;;;;;10477981;28;20223;-77
2022/11/08 18:51:52;;;;;;;2.97;1.77;;;14.50;99.00;;;;;;10471441;28;20220;-77
2022/11/08 18:56:53;;;;;;;6.03;2.17;;;14.50;99.40;;;;;;10468550;28;20223;-76
2022/11/08 19:01:53;;;;;;;4.53;2.37;;;14.50;99.50;;;;;;10468161;28;20207;-78
2022/11/08 19:06:54;;;;;;;3.27;2.27;;;14.50;99.60;;;;;;10472724;28;20315;-77
2022/11/08 19:11:55;;;;;;;4.73;2.53;;;14.50;99.80;;;;;;10466968;28;20223;-77
2022/11/08 19:16:56;;;;;;;3.63;2.33;;;14.50;99.90;;;;;;10470963;28;20589;-78
2022/11/08 19:21:56;;;;;;;4.90;2.27;;;14.50;99.90;;;;;;10480604;28;20219;-78
2022/11/08 19:26:57;;;;;;;4.80;2.50;;;14.60;99.90;;;;;;10469859;28;20234;-77
2022/11/08 19:32:00;;;;;;;3.50;2.40;;;14.70;99.90;;;;;;10470604;28;20215;-77
2022/11/08 19:37:04;;;;;;;5.90;2.77;;;14.70;99.90;;;;;;10478043;28;20330;-77
2022/11/08 19:42:04;;;;;;;5.37;2.47;;;14.70;99.90;;;;;;10471372;28;20289;-77
2022/11/08 19:47:05;;;;;;;4.83;2.60;;;14.80;99.90;;;;;;10468865;28;20278;-76
2022/11/08 19:52:06;;;;;;;3.60;2.20;;;14.70;99.90;;;;;;10465643;28;20475;-77
2022/11/08 19:57:06;;;;;;;3.00;2.37;;;14.80;99.90;;;;;;10470763;28;20215;-76
2022/11/08 20:02:08;;;;;;;6.23;2.90;;;14.70;99.90;;;;;;10473448;28;20699;-76
2022/11/08 20:07:08;;;;;;;3.00;2.57;;;14.70;99.90;;;;;;10464745;28;20223;-77
2022/11/08 20:12:09;;;;;;;4.83;2.23;;;14.70;99.90;;;;;;10466721;28;20311;-76
2022/11/08 20:17:10;;;;;;;2.90;2.30;;;14.70;99.90;;;;;;10468569;28;20721;-77
2022/11/08 20:22:10;;;;;;;3.77;2.57;;;14.70;99.90;;;;;;10465131;28;20294;-77
2022/11/08 20:27:11;;;;;;;3.50;2.50;;;14.60;99.90;;;;;;10464687;28;20234;-77
2022/11/08 20:32:12;;;;;;;4.50;2.50;;;14.50;99.90;;;;;;10455545;28;20220;-77
2022/11/08 20:37:13;;;;;;;6.97;2.60;;;14.50;99.90;;;;;;10464079;28;20215;-77
2022/11/08 20:42:18;;;;;;;3.67;2.00;;;14.50;99.90;;;;;;10469789;28;20608;-77
2022/11/08 20:47:20;;;;;;;3.07;1.90;;;14.60;99.90;;;;;;10473064;28;20276;-76
2022/11/08 20:52:25;;;;;;;5.40;2.20;;;14.70;99.90;;;;;;10458550;28;20261;-76
2022/11/08 20:57:26;;;;;;;3.30;2.40;;;14.70;99.90;;;;;;10478044;28;20240;-78
2022/11/08 21:02:28;;;;;;;3.93;2.20;;;14.90;99.90;;;;;;10471308;28;20310;-78
2022/11/08 21:07:29;;;;;;;2.97;2.17;;;14.90;99.90;;;;;;10473417;28;20207;-80
2022/11/08 21:12:30;;;;;;;3.30;2.30;;;15.00;99.90;;;;;;10465135;28;20408;-78
2022/11/08 21:17:32;;;;;;;7.30;2.20;;;14.90;99.90;;;;;;10470781;28;20217;-82
2022/11/08 21:22:32;;;;;;;4.97;2.30;;;15.00;99.90;;;;;;10479720;28;20224;-78
2022/11/08 21:27:35;;;;;;;2.97;2.30;;;15.10;99.90;;;;;;10456910;28;20751;-80
2022/11/08 21:32:36;;;;;;;3.67;2.40;;;15.00;99.90;;;;;;10481779;28;20324;-86
2022/11/08 21:37:44;;;;;;;3.80;2.37;;;15.00;99.90;;;;;;10469420;28;20265;-81
2022/11/08 21:42:45;;;;;;;6.47;2.20;;;15.00;99.90;;;;;;10481968;28;20640;-80
2022/11/08 21:47:52;;;;;;;5.50;2.50;;;14.90;99.90;;;;;;10475367;28;20215;-78
2022/11/08 21:52:52;;;;;;;2.73;2.40;;;14.80;99.90;;;;;;10473664;28;20247;-78
2022/11/08 21:57:53;;;;;;;3.17;2.50;;;14.70;99.90;;;;;;10473660;28;20288;-79
2022/11/08 22:02:54;;;;;;;4.50;2.60;;;14.70;99.90;;;;;;10467458;28;20220;-80
2022/11/08 22:07:55;;;;;;;4.50;2.80;;;14.60;99.90;;;;;;10473065;28;20274;-74
2022/11/08 22:12:55;;;;;;;4.63;3.00;;;14.60;99.90;;;;;;10465880;28;20222;-75
2022/11/08 22:17:56;;;;;;;3.93;2.93;;;14.40;99.90;;;;;;10465493;28;20214;-82
2022/11/08 22:22:57;;;;;;;3.97;2.53;;;14.40;99.90;;;;;;10470757;28;20215;-78
2022/11/08 22:27:58;;;;;;;5.37;2.80;;;14.40;99.90;;;;;;10465444;28;20239;-76
2022/11/08 22:33:00;;;;;;;4.43;2.70;;;14.30;99.90;;;;;;10469119;28;20218;-75
2022/11/08 22:38:00;;;;;;;3.73;2.50;;;14.30;99.90;;;;;;10462882;28;20726;-78
2022/11/08 22:43:01;;;;;;;4.43;2.87;;;14.30;99.90;;;;;;10466288;28;20310;-76
2022/11/08 22:48:01;;;;;;;4.67;2.53;;;14.30;99.90;;;;;;10469846;28;20594;-77
2022/11/08 22:53:02;;;;;;;6.30;2.70;;;14.30;99.90;;;;;;10471474;28;20219;-77
2022/11/08 22:58:03;;;;;;;6.90;2.70;;;14.30;99.90;;;;;;10467593;28;20225;-76
2022/11/08 23:03:03;;;;;;;3.87;2.67;;;14.30;99.90;;;;;;10470119;28;20226;-76
2022/11/08 23:08:04;;;;;;;4.23;2.50;;;14.30;99.90;;;;;;10464701;28;20223;-76
2022/11/08 23:18:27;;;;;;;3.70;2.60;;;14.30;99.90;;;;;;10466890;28;20599;-75
2022/11/08 23:34:08;;;;;;;5.77;2.40;;;14.20;99.90;;;;;;10467324;28;20222;-77
2022/11/08 23:39:11;;;;;;;5.07;2.90;;;14.20;99.90;;;;;;10470142;28;20222;-76
2022/11/08 23:44:24;;;;;;;5.43;2.83;;;14.30;99.90;;;;;;10475439;28;20231;-78
2022/11/08 23:49:25;;;;;;;5.17;2.40;;;14.30;99.90;;;;;;10464256;28;20245;-80
2022/11/08 23:54:27;;;;;;;5.20;2.77;;;14.30;99.90;;;;;;10450599;28;20211;-80
2022/11/08 23:59:27;;;;;;;4.20;2.97;;;14.30;99.90;;;;;;10471142;28;20232;-78
